VAAH Airport Information

Runway Information
Runway 05 Length 11447 ft width 150 ft
Elevation 180 ft Threshold 0 ft Heading 45
Runway 23 Length 11447 ft Width 150 ft
Elevation 189 ft Threshold 0 ft Heading 225
Airport Frequencies
Type ACC Name RADAR Frequency 123.75 MHZ
Type APP Name APPROACH Frequency 119.8 MHZ
Type ATIS Name ATIS Frequency 126.8 MHZ
Type TWR Name TOWER Frequency 119.6 MHZ
Airport Navaids
Type VOR-DME Name Ahmedabad Frequency 113100 KHZ
Type NDB Name Ahmedabad Frequency 215 KHZ
Airport Weather Information & NOTAM
ADDS - METARS form results

(2225 UTC 28 September 2021)
Data provider http://aviationweather.gov/metar/data/
 
METAR text: VAAH 282200Z 03006KT 4000 HZ SCT020 BKN080 27/26 Q0999 NOSIG
Conditions at: VAAH (AHMADABAD , IN) observed 2200 UTC 28 September 2021
Temperature: 27.0°C (81°F)
Dewpoint: 26.0°C (79°F) [RH = 94%]
Pressure (altimeter): 29.50 inches Hg (999.0 mb)
Winds: from the NNE (30 degrees) at 7 MPH (6 knots; 3.1 m/s)
Visibility: 2.49 miles (4.01 km)
Ceiling: 8000 feet AGL
Clouds: scattered clouds at 2000 feet AGL
broken clouds at 8000 feet AGL
Weather: HZ  (haze)

METAR text: VAAH 282130Z 01006KT 4000 HZ SCT020 BKN080 27/26 Q0999 NOSIG
Conditions at: VAAH (AHMADABAD , IN) observed 2130 UTC 28 September 2021
Temperature: 27.0°C (81°F)
Dewpoint: 26.0°C (79°F) [RH = 94%]
Pressure (altimeter): 29.50 inches Hg (999.0 mb)
Winds: from the N (10 degrees) at 7 MPH (6 knots; 3.1 m/s)
Visibility: 2.49 miles (4.01 km)
Ceiling: 8000 feet AGL
Clouds: scattered clouds at 2000 feet AGL
broken clouds at 8000 feet AGL
Weather: HZ  (haze)

Forecast for: VAAH (AHMADABAD , IN)
Text: TAF VAAH 282000Z 2821/2906 03006KT 3000 -TSRA BR FEW012 SCT020 FEW030CB BKN080
Forecast period: 2100 UTC 28 September 2021 to 0400 UTC 29 September 2021
Forecast type: FROM: standard forecast or significant change
Winds: from the NNE (30 degrees) at 7 MPH (6 knots; 3.1 m/s)
Visibility: 1.86 miles (2.99 km)
Ceiling: at least 12,000 feet AGL
Clouds: few clouds at 1200 feet AGL
scattered clouds at 2000 feet AGL
few clouds at 3000 feet AGL
Weather: -TSRA BR  (light rain associated with thunderstorm(s), mist)
Text: TEMPO 2823/2903 1500 -TSRA BR
Forecast period: 2300 UTC 28 September 2021 to 0300 UTC 29 September 2021
Forecast type: TEMPORARY: The following changes expected for less than half the time period
Visibility: 0.93 miles (1.50 km)
Ceiling: unknown
Clouds: missing
Weather: -TSRA BR  (light rain associated with thunderstorm(s), mist)
Text: BECMG 2904/2906 05010KT 3000 -RA BR
Forecast period: 0400 to 0600 UTC 29 September 2021
Forecast type: BECOMING: Conditions expected to become as follows by 0600 UTC 29 September 2021
Winds: from the NE (50 degrees) at 12 MPH (10 knots; 5.1 m/s)
Visibility: 1.86 miles (2.99 km)
Ceiling: at least 12,000 feet AGL
Clouds: few clouds at 1200 feet AGL
scattered clouds at 2000 feet AGL
few clouds at 3000 feet AGL
Weather: -RA BR  (light rain, mist)